sensor_id;sensor_type;location;lat;lon;timestamp;P1;durP1;ratioP1;P2;durP2;ratioP2
7193;SDS011;3638;48.820;9.244;2023-03-16T00:02:07;19.27;;;14.90;;
7193;SDS011;3638;48.820;9.244;2023-03-16T00:04:35;16.07;;;13.77;;
7193;SDS011;3638;48.820;9.244;2023-03-16T00:07:03;16.17;;;14.17;;
7193;SDS011;3638;48.820;9.244;2023-03-16T00:09:31;15.90;;;13.17;;
7193;SDS011;3638;48.820;9.244;2023-03-16T00:11:58;17.60;;;14.17;;
7193;SDS011;3638;48.820;9.244;2023-03-16T00:14:29;16.30;;;14.03;;
7193;SDS011;3638;48.820;9.244;2023-03-16T00:16:59;18.47;;;14.47;;
7193;SDS011;3638;48.820;9.244;2023-03-16T00:19:30;17.03;;;14.53;;
7193;SDS011;3638;48.820;9.244;2023-03-16T00:21:59;16.97;;;14.70;;
7193;SDS011;3638;48.820;9.244;2023-03-16T00:24:28;16.00;;;14.40;;
7193;SDS011;3638;48.820;9.244;2023-03-16T00:26:56;16.57;;;14.67;;
7193;SDS011;3638;48.820;9.244;2023-03-16T00:29:23;17.17;;;15.40;;
7193;SDS011;3638;48.820;9.244;2023-03-16T00:31:51;16.90;;;14.93;;
7193;SDS011;3638;48.820;9.244;2023-03-16T00:34:18;16.23;;;14.43;;
7193;SDS011;3638;48.820;9.244;2023-03-16T00:36:46;16.73;;;14.93;;
7193;SDS011;3638;48.820;9.244;2023-03-16T00:39:14;19.07;;;15.37;;
7193;SDS011;3638;48.820;9.244;2023-03-16T00:41:41;17.43;;;14.67;;
7193;SDS011;3638;48.820;9.244;2023-03-16T00:44:08;16.77;;;14.80;;
7193;SDS011;3638;48.820;9.244;2023-03-16T00:46:36;17.80;;;15.43;;
7193;SDS011;3638;48.820;9.244;2023-03-16T00:49:04;17.87;;;15.97;;
7193;SDS011;3638;48.820;9.244;2023-03-16T00:51:31;19.63;;;16.23;;
7193;SDS011;3638;48.820;9.244;2023-03-16T00:53:58;18.23;;;15.80;;
7193;SDS011;3638;48.820;9.244;2023-03-16T00:56:25;18.47;;;16.50;;
7193;SDS011;3638;48.820;9.244;2023-03-16T00:58:53;18.47;;;15.60;;
7193;SDS011;3638;48.820;9.244;2023-03-16T01:01:21;17.97;;;15.83;;
7193;SDS011;3638;48.820;9.244;2023-03-16T01:03:49;19.97;;;16.00;;
7193;SDS011;3638;48.820;9.244;2023-03-16T01:06:17;19.87;;;16.03;;
7193;SDS011;3638;48.820;9.244;2023-03-16T01:08:46;20.63;;;16.43;;
7193;SDS011;3638;48.820;9.244;2023-03-16T01:11:14;18.90;;;16.13;;
7193;SDS011;3638;48.820;9.244;2023-03-16T01:13:43;18.13;;;15.10;;
7193;SDS011;3638;48.820;9.244;2023-03-16T01:16:12;20.17;;;16.13;;
7193;SDS011;3638;48.820;9.244;2023-03-16T01:18:39;18.57;;;16.57;;
7193;SDS011;3638;48.820;9.244;2023-03-16T01:21:07;17.70;;;15.40;;
7193;SDS011;3638;48.820;9.244;2023-03-16T01:23:39;18.70;;;16.70;;
7193;SDS011;3638;48.820;9.244;2023-03-16T01:26:08;17.53;;;15.20;;
7193;SDS011;3638;48.820;9.244;2023-03-16T01:28:36;17.97;;;15.93;;
7193;SDS011;3638;48.820;9.244;2023-03-16T01:31:04;19.43;;;15.67;;
7193;SDS011;3638;48.820;9.244;2023-03-16T01:33:34;16.87;;;15.13;;
7193;SDS011;3638;48.820;9.244;2023-03-16T01:36:02;18.03;;;16.07;;
7193;SDS011;3638;48.820;9.244;2023-03-16T01:38:32;17.37;;;15.03;;
7193;SDS011;3638;48.820;9.244;2023-03-16T01:41:01;18.73;;;15.53;;
7193;SDS011;3638;48.820;9.244;2023-03-16T01:43:29;17.17;;;15.37;;
7193;SDS011;3638;48.820;9.244;2023-03-16T01:48:51;17.20;;;14.40;;
7193;SDS011;3638;48.820;9.244;2023-03-16T01:51:26;18.50;;;15.57;;
7193;SDS011;3638;48.820;9.244;2023-03-16T01:54:00;17.37;;;15.40;;
7193;SDS011;3638;48.820;9.244;2023-03-16T01:56:34;17.93;;;16.00;;
7193;SDS011;3638;48.820;9.244;2023-03-16T01:59:07;18.13;;;15.70;;
7193;SDS011;3638;48.820;9.244;2023-03-16T02:01:39;16.10;;;14.43;;
7193;SDS011;3638;48.820;9.244;2023-03-16T02:04:09;19.03;;;15.50;;
7193;SDS011;3638;48.820;9.244;2023-03-16T02:07:02;19.23;;;15.50;;
7193;SDS011;3638;48.820;9.244;2023-03-16T02:09:33;17.13;;;14.53;;
7193;SDS011;3638;48.820;9.244;2023-03-16T02:12:04;17.57;;;14.93;;
7193;SDS011;3638;48.820;9.244;2023-03-16T02:14:33;16.10;;;14.40;;
7193;SDS011;3638;48.820;9.244;2023-03-16T02:17:00;17.77;;;14.33;;
7193;SDS011;3638;48.820;9.244;2023-03-16T02:19:33;16.30;;;14.60;;
7193;SDS011;3638;48.820;9.244;2023-03-16T02:22:08;17.97;;;14.47;;
7193;SDS011;3638;48.820;9.244;2023-03-16T02:24:38;16.00;;;14.40;;
7193;SDS011;3638;48.820;9.244;2023-03-16T02:27:06;16.47;;;14.67;;
7193;SDS011;3638;48.820;9.244;2023-03-16T02:32:31;14.70;;;13.13;;
7193;SDS011;3638;48.820;9.244;2023-03-16T02:34:59;19.27;;;14.17;;
7193;SDS011;3638;48.820;9.244;2023-03-16T02:37:28;17.07;;;14.53;;
7193;SDS011;3638;48.820;9.244;2023-03-16T02:39:57;18.20;;;14.43;;
7193;SDS011;3638;48.820;9.244;2023-03-16T02:42:24;16.97;;;14.87;;
7193;SDS011;3638;48.820;9.244;2023-03-16T02:44:53;16.17;;;14.13;;
7193;SDS011;3638;48.820;9.244;2023-03-16T02:47:26;16.03;;;14.33;;
7193;SDS011;3638;48.820;9.244;2023-03-16T02:49:59;16.23;;;14.43;;
7193;SDS011;3638;48.820;9.244;2023-03-16T02:52:30;14.70;;;13.13;;
7193;SDS011;3638;48.820;9.244;2023-03-16T02:54:57;16.87;;;14.87;;
7193;SDS011;3638;48.820;9.244;2023-03-16T02:57:24;16.03;;;14.33;;
7193;SDS011;3638;48.820;9.244;2023-03-16T02:59:51;17.80;;;14.80;;
7193;SDS011;3638;48.820;9.244;2023-03-16T03:02:18;16.60;;;14.53;;
7193;SDS011;3638;48.820;9.244;2023-03-16T03:04:46;17.27;;;14.37;;
7193;SDS011;3638;48.820;9.244;2023-03-16T03:07:13;16.20;;;14.07;;
7193;SDS011;3638;48.820;9.244;2023-03-16T03:09:41;16.20;;;14.47;;
7193;SDS011;3638;48.820;9.244;2023-03-16T03:12:08;17.93;;;15.83;;
7193;SDS011;3638;48.820;9.244;2023-03-16T03:14:37;17.53;;;15.63;;
7193;SDS011;3638;48.820;9.244;2023-03-16T03:17:04;18.60;;;15.30;;
7193;SDS011;3638;48.820;9.244;2023-03-16T03:19:33;20.70;;;15.67;;
7193;SDS011;3638;48.820;9.244;2023-03-16T03:22:02;16.80;;;14.97;;
7193;SDS011;3638;48.820;9.244;2023-03-16T03:24:31;17.37;;;15.40;;
7193;SDS011;3638;48.820;9.244;2023-03-16T03:26:59;18.10;;;15.90;;
7193;SDS011;3638;48.820;9.244;2023-03-16T03:29:29;17.87;;;15.80;;
7193;SDS011;3638;48.820;9.244;2023-03-16T03:31:58;18.93;;;15.40;;
7193;SDS011;3638;48.820;9.244;2023-03-16T03:34:26;20.33;;;16.77;;
7193;SDS011;3638;48.820;9.244;2023-03-16T03:36:53;19.80;;;16.03;;
7193;SDS011;3638;48.820;9.244;2023-03-16T03:39:21;17.97;;;15.57;;
7193;SDS011;3638;48.820;9.244;2023-03-16T03:41:48;20.57;;;15.80;;
7193;SDS011;3638;48.820;9.244;2023-03-16T03:44:18;19.00;;;15.97;;
7193;SDS011;3638;48.820;9.244;2023-03-16T03:46:45;18.43;;;15.83;;
7193;SDS011;3638;48.820;9.244;2023-03-16T03:49:12;17.83;;;15.93;;
7193;SDS011;3638;48.820;9.244;2023-03-16T03:51:39;16.33;;;14.60;;
7193;SDS011;3638;48.820;9.244;2023-03-16T03:54:06;19.50;;;15.40;;
7193;SDS011;3638;48.820;9.244;2023-03-16T03:56:35;17.13;;;14.30;;
7193;SDS011;3638;48.820;9.244;2023-03-16T03:59:02;18.77;;;15.20;;
7193;SDS011;3638;48.820;9.244;2023-03-16T04:01:28;18.07;;;15.17;;
7193;SDS011;3638;48.820;9.244;2023-03-16T04:03:55;18.50;;;14.80;;
7193;SDS011;3638;48.820;9.244;2023-03-16T04:06:22;16.20;;;14.50;;
7193;SDS011;3638;48.820;9.244;2023-03-16T04:08:49;17.00;;;15.13;;
7193;SDS011;3638;48.820;9.244;2023-03-16T04:11:18;17.53;;;15.03;;
7193;SDS011;3638;48.820;9.244;2023-03-16T04:13:46;18.07;;;15.47;;
7193;SDS011;3638;48.820;9.244;2023-03-16T04:16:13;17.53;;;15.13;;
7193;SDS011;3638;48.820;9.244;2023-03-16T04:18:40;17.13;;;14.23;;
7193;SDS011;3638;48.820;9.244;2023-03-16T04:21:11;17.50;;;14.90;;
7193;SDS011;3638;48.820;9.244;2023-03-16T04:23:41;18.70;;;15.57;;
7193;SDS011;3638;48.820;9.244;2023-03-16T04:26:08;15.67;;;14.07;;
7193;SDS011;3638;48.820;9.244;2023-03-16T04:28:35;17.50;;;14.37;;
7193;SDS011;3638;48.820;9.244;2023-03-16T04:31:04;15.53;;;13.77;;
7193;SDS011;3638;48.820;9.244;2023-03-16T04:33:35;18.30;;;14.87;;
7193;SDS011;3638;48.820;9.244;2023-03-16T04:36:03;18.37;;;16.00;;
7193;SDS011;3638;48.820;9.244;2023-03-16T04:38:32;17.90;;;15.17;;
7193;SDS011;3638;48.820;9.244;2023-03-16T04:40:59;20.37;;;15.53;;
7193;SDS011;3638;48.820;9.244;2023-03-16T04:43:27;19.03;;;16.73;;
7193;SDS011;3638;48.820;9.244;2023-03-16T04:45:58;18.97;;;15.33;;
7193;SDS011;3638;48.820;9.244;2023-03-16T04:48:26;19.33;;;16.17;;
7193;SDS011;3638;48.820;9.244;2023-03-16T04:50:53;20.30;;;16.13;;
7193;SDS011;3638;48.820;9.244;2023-03-16T04:53:20;21.17;;;18.27;;
7193;SDS011;3638;48.820;9.244;2023-03-16T04:55:47;18.80;;;16.27;;
7193;SDS011;3638;48.820;9.244;2023-03-16T04:58:14;18.50;;;15.57;;
7193;SDS011;3638;48.820;9.244;2023-03-16T05:00:41;17.93;;;16.00;;
7193;SDS011;3638;48.820;9.244;2023-03-16T05:03:08;19.40;;;16.53;;
7193;SDS011;3638;48.820;9.244;2023-03-16T05:05:37;18.70;;;15.80;;
7193;SDS011;3638;48.820;9.244;2023-03-16T05:08:04;18.87;;;16.20;;
7193;SDS011;3638;48.820;9.244;2023-03-16T05:10:31;18.33;;;15.90;;
7193;SDS011;3638;48.820;9.244;2023-03-16T05:12:59;21.70;;;16.00;;
7193;SDS011;3638;48.820;9.244;2023-03-16T05:15:26;18.23;;;15.00;;
7193;SDS011;3638;48.820;9.244;2023-03-16T05:17:53;20.20;;;16.07;;
7193;SDS011;3638;48.820;9.244;2023-03-16T05:20:20;22.23;;;16.43;;
7193;SDS011;3638;48.820;9.244;2023-03-16T05:22:49;18.83;;;15.13;;
7193;SDS011;3638;48.820;9.244;2023-03-16T05:25:17;19.90;;;16.93;;
7193;SDS011;3638;48.820;9.244;2023-03-16T05:27:46;19.50;;;15.97;;
7193;SDS011;3638;48.820;9.244;2023-03-16T05:30:15;20.00;;;15.67;;
7193;SDS011;3638;48.820;9.244;2023-03-16T05:32:44;20.97;;;17.30;;
7193;SDS011;3638;48.820;9.244;2023-03-16T05:35:11;22.33;;;16.40;;
7193;SDS011;3638;48.820;9.244;2023-03-16T05:37:38;21.73;;;17.70;;
7193;SDS011;3638;48.820;9.244;2023-03-16T05:40:08;23.53;;;18.13;;
7193;SDS011;3638;48.820;9.244;2023-03-16T05:42:41;21.53;;;16.47;;
7193;SDS011;3638;48.820;9.244;2023-03-16T05:45:09;22.40;;;17.03;;
7193;SDS011;3638;48.820;9.244;2023-03-16T05:47:37;20.20;;;17.30;;
7193;SDS011;3638;48.820;9.244;2023-03-16T05:50:04;20.80;;;16.37;;
7193;SDS011;3638;48.820;9.244;2023-03-16T05:52:35;24.87;;;17.27;;
7193;SDS011;3638;48.820;9.244;2023-03-16T05:55:03;23.10;;;16.97;;
7193;SDS011;3638;48.820;9.244;2023-03-16T05:57:33;22.70;;;18.00;;
7193;SDS011;3638;48.820;9.244;2023-03-16T06:00:00;21.80;;;17.27;;
7193;SDS011;3638;48.820;9.244;2023-03-16T06:02:35;20.50;;;16.37;;
7193;SDS011;3638;48.820;9.244;2023-03-16T06:05:03;21.80;;;17.30;;
7193;SDS011;3638;48.820;9.244;2023-03-16T06:07:31;21.50;;;17.43;;
7193;SDS011;3638;48.820;9.244;2023-03-16T06:09:58;21.23;;;16.60;;
7193;SDS011;3638;48.820;9.244;2023-03-16T06:12:25;20.43;;;17.03;;
7193;SDS011;3638;48.820;9.244;2023-03-16T06:14:53;21.83;;;17.27;;
7193;SDS011;3638;48.820;9.244;2023-03-16T06:17:20;24.60;;;17.30;;
7193;SDS011;3638;48.820;9.244;2023-03-16T06:19:47;23.57;;;17.67;;
7193;SDS011;3638;48.820;9.244;2023-03-16T06:22:14;22.07;;;16.57;;
7193;SDS011;3638;48.820;9.244;2023-03-16T06:24:42;21.03;;;16.57;;
7193;SDS011;3638;48.820;9.244;2023-03-16T06:27:08;20.93;;;15.87;;
7193;SDS011;3638;48.820;9.244;2023-03-16T06:29:36;18.67;;;15.37;;
7193;SDS011;3638;48.820;9.244;2023-03-16T06:32:04;22.70;;;15.60;;
7193;SDS011;3638;48.820;9.244;2023-03-16T06:34:31;18.50;;;15.37;;
7193;SDS011;3638;48.820;9.244;2023-03-16T06:36:58;18.80;;;15.17;;
7193;SDS011;3638;48.820;9.244;2023-03-16T06:39:25;18.03;;;15.23;;
7193;SDS011;3638;48.820;9.244;2023-03-16T06:41:52;20.63;;;15.43;;
7193;SDS011;3638;48.820;9.244;2023-03-16T06:44:19;19.47;;;15.80;;
7193;SDS011;3638;48.820;9.244;2023-03-16T06:46:46;17.97;;;14.53;;
7193;SDS011;3638;48.820;9.244;2023-03-16T06:49:14;17.07;;;14.60;;
7193;SDS011;3638;48.820;9.244;2023-03-16T06:51:41;17.33;;;14.30;;
7193;SDS011;3638;48.820;9.244;2023-03-16T06:54:08;17.63;;;13.93;;
7193;SDS011;3638;48.820;9.244;2023-03-16T06:56:35;15.70;;;13.83;;
7193;SDS011;3638;48.820;9.244;2023-03-16T06:59:02;17.90;;;13.73;;
7193;SDS011;3638;48.820;9.244;2023-03-16T07:01:29;17.20;;;13.90;;
7193;SDS011;3638;48.820;9.244;2023-03-16T07:03:56;16.27;;;13.77;;
7193;SDS011;3638;48.820;9.244;2023-03-16T07:06:24;17.17;;;12.77;;
7193;SDS011;3638;48.820;9.244;2023-03-16T07:08:51;15.77;;;13.03;;
7193;SDS011;3638;48.820;9.244;2023-03-16T07:11:18;17.10;;;13.10;;
7193;SDS011;3638;48.820;9.244;2023-03-16T07:13:44;16.60;;;12.37;;
7193;SDS011;3638;48.820;9.244;2023-03-16T07:16:11;17.03;;;12.77;;
7193;SDS011;3638;48.820;9.244;2023-03-16T07:18:38;14.30;;;12.67;;
7193;SDS011;3638;48.820;9.244;2023-03-16T07:21:08;15.67;;;12.20;;
7193;SDS011;3638;48.820;9.244;2023-03-16T07:23:36;15.23;;;11.47;;
7193;SDS011;3638;48.820;9.244;2023-03-16T07:26:03;14.00;;;11.27;;
7193;SDS011;3638;48.820;9.244;2023-03-16T07:28:32;15.70;;;11.30;;
7193;SDS011;3638;48.820;9.244;2023-03-16T07:30:59;15.83;;;12.10;;
7193;SDS011;3638;48.820;9.244;2023-03-16T07:33:26;15.97;;;12.20;;
7193;SDS011;3638;48.820;9.244;2023-03-16T07:35:53;14.27;;;11.67;;
7193;SDS011;3638;48.820;9.244;2023-03-16T07:38:20;13.80;;;11.60;;
7193;SDS011;3638;48.820;9.244;2023-03-16T07:40:48;13.17;;;11.73;;
7193;SDS011;3638;48.820;9.244;2023-03-16T07:43:16;13.30;;;11.27;;
7193;SDS011;3638;48.820;9.244;2023-03-16T07:45:46;13.33;;;10.97;;
7193;SDS011;3638;48.820;9.244;2023-03-16T07:48:14;11.93;;;10.47;;
7193;SDS011;3638;48.820;9.244;2023-03-16T07:50:41;13.30;;;10.53;;
7193;SDS011;3638;48.820;9.244;2023-03-16T07:53:09;15.97;;;10.27;;
7193;SDS011;3638;48.820;9.244;2023-03-16T07:55:36;11.50;;;9.37;;
7193;SDS011;3638;48.820;9.244;2023-03-16T07:58:04;11.63;;;10.43;;
7193;SDS011;3638;48.820;9.244;2023-03-16T08:00:31;12.33;;;10.43;;
7193;SDS011;3638;48.820;9.244;2023-03-16T08:02:58;11.67;;;9.40;;
7193;SDS011;3638;48.820;9.244;2023-03-16T08:05:26;11.93;;;9.97;;
7193;SDS011;3638;48.820;9.244;2023-03-16T08:07:53;11.37;;;9.60;;
7193;SDS011;3638;48.820;9.244;2023-03-16T08:10:21;11.73;;;9.37;;
7193;SDS011;3638;48.820;9.244;2023-03-16T08:12:48;11.40;;;9.43;;
7193;SDS011;3638;48.820;9.244;2023-03-16T08:15:16;10.80;;;9.70;;
7193;SDS011;3638;48.820;9.244;2023-03-16T08:17:44;10.70;;;9.27;;
7193;SDS011;3638;48.820;9.244;2023-03-16T08:20:11;10.73;;;9.47;;
7193;SDS011;3638;48.820;9.244;2023-03-16T08:22:39;10.60;;;9.40;;
7193;SDS011;3638;48.820;9.244;2023-03-16T08:25:10;11.00;;;9.57;;
7193;SDS011;3638;48.820;9.244;2023-03-16T08:27:37;10.37;;;9.27;;
7193;SDS011;3638;48.820;9.244;2023-03-16T08:30:06;12.10;;;9.17;;
7193;SDS011;3638;48.820;9.244;2023-03-16T08:32:38;11.83;;;9.73;;
7193;SDS011;3638;48.820;9.244;2023-03-16T08:35:06;12.07;;;9.47;;
7193;SDS011;3638;48.820;9.244;2023-03-16T08:37:37;10.30;;;9.17;;
7193;SDS011;3638;48.820;9.244;2023-03-16T08:40:04;10.20;;;9.10;;
7193;SDS011;3638;48.820;9.244;2023-03-16T08:42:34;11.10;;;9.03;;
7193;SDS011;3638;48.820;9.244;2023-03-16T08:45:02;10.70;;;8.97;;
7193;SDS011;3638;48.820;9.244;2023-03-16T08:47:33;9.93;;;8.87;;
7193;SDS011;3638;48.820;9.244;2023-03-16T08:50:02;9.77;;;8.60;;
7193;SDS011;3638;48.820;9.244;2023-03-16T08:52:31;10.87;;;9.13;;
7193;SDS011;3638;48.820;9.244;2023-03-16T08:54:58;11.73;;;8.63;;
7193;SDS011;3638;48.820;9.244;2023-03-16T08:57:25;9.93;;;8.53;;
7193;SDS011;3638;48.820;9.244;2023-03-16T08:59:52;9.03;;;7.70;;
7193;SDS011;3638;48.820;9.244;2023-03-16T09:02:18;14.77;;;8.87;;
7193;SDS011;3638;48.820;9.244;2023-03-16T09:04:46;10.83;;;8.13;;
7193;SDS011;3638;48.820;9.244;2023-03-16T09:07:15;10.33;;;7.77;;
7193;SDS011;3638;48.820;9.244;2023-03-16T09:09:42;9.17;;;7.80;;
7193;SDS011;3638;48.820;9.244;2023-03-16T09:12:10;8.80;;;7.90;;
7193;SDS011;3638;48.820;9.244;2023-03-16T09:14:37;12.67;;;8.07;;
7193;SDS011;3638;48.820;9.244;2023-03-16T09:17:04;8.67;;;7.77;;
7193;SDS011;3638;48.820;9.244;2023-03-16T09:19:32;12.03;;;8.07;;
7193;SDS011;3638;48.820;9.244;2023-03-16T09:22:00;8.77;;;7.87;;
7193;SDS011;3638;48.820;9.244;2023-03-16T09:24:29;9.93;;;7.43;;
7193;SDS011;3638;48.820;9.244;2023-03-16T09:26:56;10.27;;;8.10;;
7193;SDS011;3638;48.820;9.244;2023-03-16T09:29:23;9.33;;;8.00;;
7193;SDS011;3638;48.820;9.244;2023-03-16T09:31:49;7.43;;;6.43;;
7193;SDS011;3638;48.820;9.244;2023-03-16T09:34:16;7.50;;;6.57;;
7193;SDS011;3638;48.820;9.244;2023-03-16T09:36:43;8.63;;;5.47;;
7193;SDS011;3638;48.820;9.244;2023-03-16T09:39:10;7.23;;;5.60;;
7193;SDS011;3638;48.820;9.244;2023-03-16T09:41:41;6.73;;;6.03;;
7193;SDS011;3638;48.820;9.244;2023-03-16T09:44:19;6.00;;;5.23;;
7193;SDS011;3638;48.820;9.244;2023-03-16T09:46:59;6.00;;;5.40;;
7193;SDS011;3638;48.820;9.244;2023-03-16T09:49:30;5.73;;;5.13;;
7193;SDS011;3638;48.820;9.244;2023-03-16T09:52:04;6.97;;;6.07;;
7193;SDS011;3638;48.820;9.244;2023-03-16T09:54:39;6.73;;;5.70;;
7193;SDS011;3638;48.820;9.244;2023-03-16T09:57:14;6.17;;;5.57;;
7193;SDS011;3638;48.820;9.244;2023-03-16T09:59:48;7.00;;;6.00;;
7193;SDS011;3638;48.820;9.244;2023-03-16T10:02:24;6.27;;;5.27;;
7193;SDS011;3638;48.820;9.244;2023-03-16T10:05:11;5.33;;;4.70;;
7193;SDS011;3638;48.820;9.244;2023-03-16T10:07:42;5.33;;;4.67;;
7193;SDS011;3638;48.820;9.244;2023-03-16T10:10:20;6.07;;;4.67;;
7193;SDS011;3638;48.820;9.244;2023-03-16T10:13:00;5.60;;;4.67;;
7193;SDS011;3638;48.820;9.244;2023-03-16T10:15:31;6.80;;;5.20;;
7193;SDS011;3638;48.820;9.244;2023-03-16T10:18:03;6.37;;;4.77;;
7193;SDS011;3638;48.820;9.244;2023-03-16T10:20:38;5.17;;;4.50;;
7193;SDS011;3638;48.820;9.244;2023-03-16T10:23:17;4.47;;;4.07;;
7193;SDS011;3638;48.820;9.244;2023-03-16T10:25:49;5.37;;;4.50;;
7193;SDS011;3638;48.820;9.244;2023-03-16T10:28:20;5.77;;;4.90;;
7193;SDS011;3638;48.820;9.244;2023-03-16T10:30:50;5.00;;;4.37;;
7193;SDS011;3638;48.820;9.244;2023-03-16T10:33:21;5.43;;;4.70;;
7193;SDS011;3638;48.820;9.244;2023-03-16T10:35:51;5.83;;;4.43;;
7193;SDS011;3638;48.820;9.244;2023-03-16T10:38:27;7.00;;;4.50;;
7193;SDS011;3638;48.820;9.244;2023-03-16T10:41:03;5.53;;;4.00;;
7193;SDS011;3638;48.820;9.244;2023-03-16T10:43:41;5.07;;;4.57;;
7193;SDS011;3638;48.820;9.244;2023-03-16T10:46:09;7.40;;;3.83;;
7193;SDS011;3638;48.820;9.244;2023-03-16T10:48:37;5.77;;;4.20;;
7193;SDS011;3638;48.820;9.244;2023-03-16T10:51:06;4.40;;;4.00;;
7193;SDS011;3638;48.820;9.244;2023-03-16T10:53:39;4.13;;;3.73;;
7193;SDS011;3638;48.820;9.244;2023-03-16T10:56:10;8.23;;;4.03;;
7193;SDS011;3638;48.820;9.244;2023-03-16T10:58:45;5.60;;;3.97;;
7193;SDS011;3638;48.820;9.244;2023-03-16T11:01:14;4.60;;;3.90;;
7193;SDS011;3638;48.820;9.244;2023-03-16T11:03:46;4.57;;;4.13;;
7193;SDS011;3638;48.820;9.244;2023-03-16T11:06:19;5.63;;;3.80;;
7193;SDS011;3638;48.820;9.244;2023-03-16T11:08:48;3.83;;;3.53;;
7193;SDS011;3638;48.820;9.244;2023-03-16T11:11:17;4.50;;;3.60;;
7193;SDS011;3638;48.820;9.244;2023-03-16T11:13:54;4.30;;;3.87;;
7193;SDS011;3638;48.820;9.244;2023-03-16T11:16:25;4.07;;;3.67;;
7193;SDS011;3638;48.820;9.244;2023-03-16T11:18:57;4.57;;;3.27;;
7193;SDS011;3638;48.820;9.244;2023-03-16T11:21:33;5.37;;;4.00;;
7193;SDS011;3638;48.820;9.244;2023-03-16T11:24:09;4.80;;;3.50;;
7193;SDS011;3638;48.820;9.244;2023-03-16T11:26:43;5.27;;;3.67;;
7193;SDS011;3638;48.820;9.244;2023-03-16T11:29:15;4.57;;;3.37;;
7193;SDS011;3638;48.820;9.244;2023-03-16T11:31:47;5.07;;;3.93;;
7193;SDS011;3638;48.820;9.244;2023-03-16T11:34:20;3.57;;;3.00;;
7193;SDS011;3638;48.820;9.244;2023-03-16T11:36:53;5.30;;;3.10;;
7193;SDS011;3638;48.820;9.244;2023-03-16T11:39:29;3.47;;;3.17;;
7193;SDS011;3638;48.820;9.244;2023-03-16T11:42:13;4.17;;;3.77;;
7193;SDS011;3638;48.820;9.244;2023-03-16T11:44:59;4.20;;;3.57;;
7193;SDS011;3638;48.820;9.244;2023-03-16T11:47:44;4.50;;;3.60;;
7193;SDS011;3638;48.820;9.244;2023-03-16T11:50:42;4.30;;;3.90;;
7193;SDS011;3638;48.820;9.244;2023-03-16T11:53:24;3.57;;;2.90;;
7193;SDS011;3638;48.820;9.244;2023-03-16T11:56:10;3.83;;;3.47;;
7193;SDS011;3638;48.820;9.244;2023-03-16T11:58:52;3.50;;;3.03;;
7193;SDS011;3638;48.820;9.244;2023-03-16T12:01:32;3.20;;;2.90;;
7193;SDS011;3638;48.820;9.244;2023-03-16T12:04:18;4.63;;;3.00;;
7193;SDS011;3638;48.820;9.244;2023-03-16T12:07:04;4.80;;;3.10;;
7193;SDS011;3638;48.820;9.244;2023-03-16T12:09:55;3.13;;;2.80;;
7193;SDS011;3638;48.820;9.244;2023-03-16T12:12:38;5.73;;;3.70;;
7193;SDS011;3638;48.820;9.244;2023-03-16T12:15:21;4.60;;;3.00;;
7193;SDS011;3638;48.820;9.244;2023-03-16T12:18:07;3.67;;;3.03;;
7193;SDS011;3638;48.820;9.244;2023-03-16T12:20:52;3.37;;;2.90;;
7193;SDS011;3638;48.820;9.244;2023-03-16T12:23:23;3.40;;;3.10;;
7193;SDS011;3638;48.820;9.244;2023-03-16T12:25:54;3.77;;;3.47;;
7193;SDS011;3638;48.820;9.244;2023-03-16T12:28:24;4.83;;;3.60;;
7193;SDS011;3638;48.820;9.244;2023-03-16T12:30:56;5.43;;;3.10;;
7193;SDS011;3638;48.820;9.244;2023-03-16T12:33:38;5.07;;;3.10;;
7193;SDS011;3638;48.820;9.244;2023-03-16T12:36:44;3.27;;;2.90;;
7193;SDS011;3638;48.820;9.244;2023-03-16T12:39:46;3.83;;;3.43;;
7193;SDS011;3638;48.820;9.244;2023-03-16T12:42:37;3.77;;;3.40;;
7193;SDS011;3638;48.820;9.244;2023-03-16T12:45:20;4.63;;;3.47;;
7193;SDS011;3638;48.820;9.244;2023-03-16T12:47:57;5.17;;;3.40;;
7193;SDS011;3638;48.820;9.244;2023-03-16T12:50:45;4.73;;;3.20;;
7193;SDS011;3638;48.820;9.244;2023-03-16T12:53:28;4.37;;;3.57;;
7193;SDS011;3638;48.820;9.244;2023-03-16T12:56:11;4.60;;;3.20;;
7193;SDS011;3638;48.820;9.244;2023-03-16T12:58:41;4.47;;;3.20;;
7193;SDS011;3638;48.820;9.244;2023-03-16T13:01:11;3.73;;;3.33;;
7193;SDS011;3638;48.820;9.244;2023-03-16T13:03:41;4.77;;;3.30;;
7193;SDS011;3638;48.820;9.244;2023-03-16T13:06:16;3.53;;;3.00;;
7193;SDS011;3638;48.820;9.244;2023-03-16T13:08:47;4.77;;;3.30;;
7193;SDS011;3638;48.820;9.244;2023-03-16T13:11:18;4.30;;;3.83;;
7193;SDS011;3638;48.820;9.244;2023-03-16T13:13:49;4.97;;;3.90;;
7193;SDS011;3638;48.820;9.244;2023-03-16T13:16:29;5.03;;;3.40;;
7193;SDS011;3638;48.820;9.244;2023-03-16T13:19:00;3.97;;;3.20;;
7193;SDS011;3638;48.820;9.244;2023-03-16T13:21:58;4.60;;;3.30;;
7193;SDS011;3638;48.820;9.244;2023-03-16T13:24:34;3.80;;;3.20;;
7193;SDS011;3638;48.820;9.244;2023-03-16T13:27:05;3.83;;;3.13;;
7193;SDS011;3638;48.820;9.244;2023-03-16T13:29:51;5.63;;;3.30;;
7193;SDS011;3638;48.820;9.244;2023-03-16T13:32:21;4.53;;;3.63;;
7193;SDS011;3638;48.820;9.244;2023-03-16T13:34:50;4.90;;;3.33;;
7193;SDS011;3638;48.820;9.244;2023-03-16T13:37:20;4.23;;;3.40;;
7193;SDS011;3638;48.820;9.244;2023-03-16T13:39:52;4.03;;;3.07;;
7193;SDS011;3638;48.820;9.244;2023-03-16T13:42:20;5.00;;;3.27;;
7193;SDS011;3638;48.820;9.244;2023-03-16T13:44:51;3.70;;;3.37;;
7193;SDS011;3638;48.820;9.244;2023-03-16T13:47:19;4.23;;;3.40;;
7193;SDS011;3638;48.820;9.244;2023-03-16T13:49:47;4.07;;;3.47;;
7193;SDS011;3638;48.820;9.244;2023-03-16T13:52:18;4.13;;;3.60;;
7193;SDS011;3638;48.820;9.244;2023-03-16T13:54:51;3.40;;;3.00;;
7193;SDS011;3638;48.820;9.244;2023-03-16T13:57:20;3.40;;;3.10;;
7193;SDS011;3638;48.820;9.244;2023-03-16T13:59:49;3.70;;;3.23;;
7193;SDS011;3638;48.820;9.244;2023-03-16T14:02:22;4.10;;;3.60;;
7193;SDS011;3638;48.820;9.244;2023-03-16T14:04:49;4.00;;;3.60;;
7193;SDS011;3638;48.820;9.244;2023-03-16T14:07:17;6.20;;;3.37;;
7193;SDS011;3638;48.820;9.244;2023-03-16T14:09:49;3.83;;;2.90;;
7193;SDS011;3638;48.820;9.244;2023-03-16T14:12:17;3.97;;;3.57;;
7193;SDS011;3638;48.820;9.244;2023-03-16T14:14:45;3.90;;;3.30;;
7193;SDS011;3638;48.820;9.244;2023-03-16T14:17:15;4.10;;;3.37;;
7193;SDS011;3638;48.820;9.244;2023-03-16T14:19:45;3.43;;;3.07;;
7193;SDS011;3638;48.820;9.244;2023-03-16T14:22:14;3.93;;;3.43;;
7193;SDS011;3638;48.820;9.244;2023-03-16T14:24:45;3.50;;;3.20;;
7193;SDS011;3638;48.820;9.244;2023-03-16T14:27:21;3.67;;;3.37;;
7193;SDS011;3638;48.820;9.244;2023-03-16T14:29:55;5.03;;;3.40;;
7193;SDS011;3638;48.820;9.244;2023-03-16T14:32:26;4.03;;;3.50;;
7193;SDS011;3638;48.820;9.244;2023-03-16T14:35:11;5.70;;;3.73;;
7193;SDS011;3638;48.820;9.244;2023-03-16T14:37:42;3.80;;;3.40;;
7193;SDS011;3638;48.820;9.244;2023-03-16T14:40:21;3.80;;;3.13;;
7193;SDS011;3638;48.820;9.244;2023-03-16T14:42:55;4.07;;;3.43;;
7193;SDS011;3638;48.820;9.244;2023-03-16T14:45:25;3.50;;;3.20;;
7193;SDS011;3638;48.820;9.244;2023-03-16T14:48:00;4.13;;;3.60;;
7193;SDS011;3638;48.820;9.244;2023-03-16T14:50:30;6.43;;;3.20;;
7193;SDS011;3638;48.820;9.244;2023-03-16T14:52:58;5.33;;;3.57;;
7193;SDS011;3638;48.820;9.244;2023-03-16T14:55:27;3.87;;;3.37;;
7193;SDS011;3638;48.820;9.244;2023-03-16T14:57:54;5.07;;;3.73;;
7193;SDS011;3638;48.820;9.244;2023-03-16T15:00:21;3.43;;;3.13;;
7193;SDS011;3638;48.820;9.244;2023-03-16T15:02:53;3.30;;;3.00;;
7193;SDS011;3638;48.820;9.244;2023-03-16T15:05:28;5.83;;;3.50;;
7193;SDS011;3638;48.820;9.244;2023-03-16T15:07:59;4.93;;;3.60;;
7193;SDS011;3638;48.820;9.244;2023-03-16T15:10:29;5.43;;;3.70;;
7193;SDS011;3638;48.820;9.244;2023-03-16T15:12:58;3.77;;;3.13;;
7193;SDS011;3638;48.820;9.244;2023-03-16T15:15:37;3.80;;;3.23;;
7193;SDS011;3638;48.820;9.244;2023-03-16T15:18:06;4.10;;;3.33;;
7193;SDS011;3638;48.820;9.244;2023-03-16T15:20:34;4.67;;;3.40;;
7193;SDS011;3638;48.820;9.244;2023-03-16T15:23:07;3.67;;;3.20;;
7193;SDS011;3638;48.820;9.244;2023-03-16T15:25:40;4.20;;;3.30;;
7193;SDS011;3638;48.820;9.244;2023-03-16T15:28:10;3.53;;;3.23;;